Kaszuby — C6XD6 — position and weather

sailwx.info

Track history (hours):
 
Tides and Currents Weather Stations Pressure Air Temp Water Temp Dewpoint Dewpoint Depression Visibility Wind Speed Wind Dir Waves Ship Positions

Kaszuby

Last reported at 2016-May-19 21:31 UTC. Time now 2016-May-28 00:05 UTC.
Position N 58°43' W 004°32'.
Warning: this ship's position is 8 days out of date.

Length 190 m; draft 10.2 m.

Type: Cargo ship. MMSI: 311005600.

Date/timePositionNaut miles runAvg speedWind from/ knotsBaromVisibWave heightAir tempDewpointWater temp
2016-May-19 21:31N 58°43' W 004°32'1111.1
2016-May-19 20:33N 58°43' W 004°12'1111.0
2016-May-19 19:33N 58°43' W 003°51'1211.6
2016-May-19 18:33N 58°43' W 003°28'1110.7
2016-May-19 17:33N 58°43' W 003°08'1111.0
2016-May-19 16:33N 58°43' W 002°47'41912.3
2016-May-18 06:32N 57°49' E 010°23'1111.1
2016-May-18 05:33N 57°49' E 010°43'1110.5
2016-May-18 04:33N 57°42' E 010°58'1211.7
2016-May-18 03:33N 57°34' E 011°14'1211.5
2016-May-18 02:33N 57°25' E 011°28'1212.2
2016-May-18 01:33N 57°14' E 011°36'1212.2
2016-May-18 00:33N 57°02' E 011°44'1312.6
2016-May-17 23:33N 56°50' E 011°51'1211.8
2016-May-17 22:33N 56°39' E 011°48'2912.5
2016-May-17 20:17N 56°15' E 011°21'912.1
2016-May-17 19:33N 56°07' E 011°11'1311.8
2016-May-17 18:27N 55°56' E 010°59'1011.7
2016-May-17 17:33N 55°47' E 010°49'2710.9
2016-May-17 15:04N 55°21' E 011°02'5 9.2
2016-May-17 14:33N 55°16' E 011°04'1110.7
2016-May-17 13:33N 55°06' E 010°60'1110.5
2016-May-17 12:33N 54°56' E 010°53'1010.5
2016-May-17 11:33N 54°46' E 010°49'9 9.5
2016-May-17 10:33N 54°38' E 010°56'1110.8
2016-May-17 09:33N 54°35' E 011°14'1111.3
2016-May-17 08:33N 54°30' E 011°32'1111.0
2016-May-17 07:33N 54°26' E 011°49'1211.6
2016-May-17 06:33N 54°26' E 012°09'1211.7
2016-May-17 05:33N 54°37' E 012°18'4912.2
2016-May-17 01:33N 54°57' E 013°34'1212.0
2016-May-17 00:33N 55°01' E 013°54'1212.1
2016-May-16 23:33N 55°09' E 014°10'1313.2
2016-May-16 22:33N 55°19' E 014°25'1312.9
2016-May-16 21:33N 55°28' E 014°42'1312.7
2016-May-16 20:33N 55°35' E 015°01'1312.9
2016-May-16 19:33N 55°41' E 015°21'33412.7
2016-May-15 17:09N 59°33' E 022°50'813.2
2016-May-15 16:33N 59°36' E 023°05'1313.1
2016-May-15 15:32N 59°39' E 023°31'1313.4
2016-May-15 14:33N 59°43' E 023°56'5313.3
2016-May-15 10:33N 59°55' E 025°39'1313.3
2016-May-15 09:33N 59°58' E 026°04'1313.1
2016-May-15 08:33N 60°01' E 026°30'1312.7
2016-May-15 07:33N 59°60' E 026°55'1212.1
2016-May-15 06:33N 60°04' E 027°18'1312.5
2016-May-15 05:33N 60°11' E 027°40'1212.3
2016-May-15 04:33N 60°10' E 028°04'1312.9
2016-May-15 03:33N 60°04' E 028°28'1312.9
2016-May-15 02:33N 60°03' E 028°53'1312.9
2016-May-15 01:32N 60°02' E 029°20'9 9.6
2016-May-15 00:33N 60°00' E 029°38'1010.0
2016-May-14 23:33N 59°56' E 029°57'8 8.0
2016-May-14 22:33N 59°53' E 030°11'0 0.1
2016-May-14 21:32N 59°53' E 030°11'0 0.0
2016-May-14 20:32N 59°53' E 030°11'0 0.0
2016-May-14 19:32N 59°53' E 030°11'0 0.0
2016-May-14 18:32N 59°53' E 030°11'0 0.0
2016-May-14 17:32N 59°53' E 030°11'0 0.0
2016-May-14 16:32N 59°53' E 030°11'0 0.0
2016-May-14 15:32N 59°53' E 030°11'0 0.0
2016-May-14 14:32N 59°53' E 030°11'0 0.0
2016-May-14 13:32N 59°53' E 030°11'0 0.0
2016-May-14 12:32N 59°53' E 030°11'0 0.0
2016-May-14 11:32N 59°53' E 030°11'0 0.0
2016-May-14 10:32N 59°53' E 030°11'0 0.0
2016-May-14 09:32N 59°53' E 030°11'0 0.0
2016-May-14 08:32N 59°53' E 030°11'0 0.0
2016-May-14 07:32N 59°53' E 030°11'0 0.0
2016-May-14 06:32N 59°53' E 030°11'0 0.0
2016-May-14 05:32N 59°53' E 030°11'0 0.0
2016-May-14 04:32N 59°53' E 030°11'0 0.0
2016-May-14 03:32N 59°53' E 030°11'0 0.0
2016-May-14 02:32N 59°53' E 030°11'0 0.0
2016-May-14 01:32N 59°53' E 030°11'0 0.0
2016-May-14 00:32N 59°53' E 030°11'0 0.0
2016-May-13 23:32N 59°53' E 030°11'0 0.0
2016-May-13 22:32N 59°53' E 030°11'0 0.0
2016-May-13 21:32N 59°53' E 030°11'0 0.0
2016-May-13 20:32N 59°53' E 030°11'0 0.0
2016-May-13 19:32N 59°53' E 030°11'0 0.0
2016-May-13 18:32N 59°53' E 030°11'0 0.0
2016-May-13 17:32N 59°53' E 030°11'0 0.0
2016-May-13 16:32N 59°53' E 030°11'0 0.0
2016-May-13 15:33N 59°53' E 030°11'6 5.6
2016-May-13 14:33N 59°55' E 030°01'8 8.2
2016-May-13 13:33N 59°59' E 029°46'1010.0
2016-May-13 12:31N 60°01' E 029°26'2 1.7
2016-May-13 11:27N 60°02' E 029°23'0 0.0
2016-May-13 10:30N 60°02' E 029°23'0 0.0
2016-May-13 09:33N 60°02' E 029°23'0 0.0
2016-May-13 08:33N 60°02' E 029°23'0 0.0
2016-May-13 07:30N 60°02' E 029°23'0 0.0
2016-May-13 06:33N 60°02' E 029°23'0 0.0
2016-May-13 05:33N 60°02' E 029°23'0 0.0
2016-May-13 04:33N 60°02' E 029°23'0 0.1
2016-May-13 03:33N 60°02' E 029°23'0 0.0
2016-May-13 02:33N 60°02' E 029°23'0 0.0
2016-May-13 01:33N 60°02' E 029°23'0 0.0
2016-May-12 23:27N 60°02' E 029°23'0 0.0
2016-May-12 22:33N 60°02' E 029°23'0 0.0
2016-May-12 21:24N 60°02' E 029°23'0 0.0
2016-May-12 20:33N 60°02' E 029°23'0 0.0
2016-May-12 19:33N 60°02' E 029°23'0 0.0
2016-May-12 18:33N 60°02' E 029°23'0 0.0
2016-May-12 17:33N 60°02' E 029°23'0 0.1
2016-May-12 16:18N 60°02' E 029°23'0 0.0
2016-May-12 15:33N 60°02' E 029°23'0 0.0
2016-May-12 14:30N 60°02' E 029°23'0 0.0
2016-May-12 13:33N 60°02' E 029°23'0 0.1
2016-May-12 12:33N 60°02' E 029°23'0 0.1
2016-May-12 11:33N 60°02' E 029°23'0 0.1
2016-May-12 10:27N 60°02' E 029°23'0 0.0
2016-May-12 06:15N 60°02' E 029°23'0 0.0
2016-May-12 05:30N 60°02' E 029°23'0 0.0
2016-May-12 04:21N 60°02' E 029°23'0 0.0
2016-May-12 03:15N 60°02' E 029°23'0 0.0
2016-May-12 02:27N 60°02' E 029°23'0 0.0
2016-May-11 22:33N 60°02' E 029°23'0 0.1
2016-May-11 20:30N 60°02' E 029°23'0 0.1
2016-May-11 19:27N 60°02' E 029°23'0 0.0
2016-May-11 13:30N 60°02' E 029°24'0 0.0
2016-May-11 12:30N 60°02' E 029°23'0 0.1
2016-May-11 11:33N 60°02' E 029°24'0 0.0
2016-May-11 10:33N 60°02' E 029°24'0 0.0
2016-May-11 04:24N 60°02' E 029°24'0 0.0
2016-May-11 03:27N 60°02' E 029°24'0 0.0
2016-May-11 02:27N 60°02' E 029°24'0 0.1
2016-May-11 01:33N 60°02' E 029°24'0 0.1
2016-May-11 00:30N 60°02' E 029°24'0 0.0
2016-May-10 23:15N 60°02' E 029°24'0 0.0
2016-May-10 22:30N 60°02' E 029°24'0 0.0
2016-May-10 21:33N 60°02' E 029°24'0 0.1
2016-May-10 20:33N 60°02' E 029°24'0 0.0
2016-May-10 19:33N 60°02' E 029°24'0 0.0
2016-May-10 18:33N 60°02' E 029°24'0 0.0
2016-May-10 17:33N 60°02' E 029°24'0 0.0
2016-May-10 16:30N 60°02' E 029°24'0 0.0
2016-May-10 15:33N 60°02' E 029°24'0 0.0
2016-May-10 14:33N 60°02' E 029°24'0 0.0
2016-May-10 13:33N 60°02' E 029°24'0 0.0
2016-May-10 12:33N 60°02' E 029°24'0 0.0
2016-May-10 11:33N 60°02' E 029°24'0 0.0
2016-May-10 10:30N 60°02' E 029°24'0 0.0
2016-May-10 09:33N 60°02' E 029°24'0 0.0
2016-May-10 08:33N 60°02' E 029°24'0 0.0
2016-May-10 07:33N 60°02' E 029°24'0 0.0
2016-May-10 06:33N 60°02' E 029°24'0 0.0
2016-May-10 05:33N 60°02' E 029°24'0 0.1
2016-May-10 04:21N 60°02' E 029°24'0 0.0
2016-May-10 03:33N 60°02' E 029°24'0 0.0
2016-May-10 02:33N 60°02' E 029°24'0 0.0
2016-May-10 01:27N 60°02' E 029°24'0 0.0
2016-May-10 00:33N 60°02' E 029°24'0 0.0
2016-May-09 23:30N 60°02' E 029°24'0 0.0
2016-May-09 22:30N 60°02' E 029°24'  
Track history (hours):
 
Tides and Currents Weather Stations Pressure Air Temp Water Temp Dewpoint Dewpoint Depression Visibility Wind Speed Wind Dir Waves Ship Positions

Kaszuby

Last reported at 2016-May-19 21:31 UTC. Time now 2016-May-28 00:05 UTC.
Position N 58°43' W 004°32'.
Warning: this ship's position is 8 days out of date.

Length 190 m; draft 10.2 m.

Type: Cargo ship. MMSI: 311005600.

Date/timePositionNaut miles runAvg speedWind from/ knotsBaromVisibWave heightAir tempDewpointWater temp
2016-May-19 21:31N 58°43' W 004°32'1111.1
2016-May-19 20:33N 58°43' W 004°12'1111.0
2016-May-19 19:33N 58°43' W 003°51'1211.6
2016-May-19 18:33N 58°43' W 003°28'1110.7
2016-May-19 17:33N 58°43' W 003°08'1111.0
2016-May-19 16:33N 58°43' W 002°47'41912.3
2016-May-18 06:32N 57°49' E 010°23'1111.1
2016-May-18 05:33N 57°49' E 010°43'1110.5
2016-May-18 04:33N 57°42' E 010°58'1211.7
2016-May-18 03:33N 57°34' E 011°14'1211.5
2016-May-18 02:33N 57°25' E 011°28'1212.2
2016-May-18 01:33N 57°14' E 011°36'1212.2
2016-May-18 00:33N 57°02' E 011°44'1312.6
2016-May-17 23:33N 56°50' E 011°51'1211.8
2016-May-17 22:33N 56°39' E 011°48'2912.5
2016-May-17 20:17N 56°15' E 011°21'912.1
2016-May-17 19:33N 56°07' E 011°11'1311.8
2016-May-17 18:27N 55°56' E 010°59'1011.7
2016-May-17 17:33N 55°47' E 010°49'2710.9
2016-May-17 15:04N 55°21' E 011°02'5 9.2
2016-May-17 14:33N 55°16' E 011°04'1110.7
2016-May-17 13:33N 55°06' E 010°60'1110.5
2016-May-17 12:33N 54°56' E 010°53'1010.5
2016-May-17 11:33N 54°46' E 010°49'9 9.5
2016-May-17 10:33N 54°38' E 010°56'1110.8
2016-May-17 09:33N 54°35' E 011°14'1111.3
2016-May-17 08:33N 54°30' E 011°32'1111.0
2016-May-17 07:33N 54°26' E 011°49'1211.6
2016-May-17 06:33N 54°26' E 012°09'1211.7
2016-May-17 05:33N 54°37' E 012°18'4912.2
2016-May-17 01:33N 54°57' E 013°34'1212.0
2016-May-17 00:33N 55°01' E 013°54'1212.1
2016-May-16 23:33N 55°09' E 014°10'1313.2
2016-May-16 22:33N 55°19' E 014°25'1312.9
2016-May-16 21:33N 55°28' E 014°42'1312.7
2016-May-16 20:33N 55°35' E 015°01'1312.9
2016-May-16 19:33N 55°41' E 015°21'33412.7
2016-May-15 17:09N 59°33' E 022°50'813.2
2016-May-15 16:33N 59°36' E 023°05'1313.1
2016-May-15 15:32N 59°39' E 023°31'1313.4
2016-May-15 14:33N 59°43' E 023°56'5313.3
2016-May-15 10:33N 59°55' E 025°39'1313.3
2016-May-15 09:33N 59°58' E 026°04'1313.1
2016-May-15 08:33N 60°01' E 026°30'1312.7
2016-May-15 07:33N 59°60' E 026°55'1212.1
2016-May-15 06:33N 60°04' E 027°18'1312.5
2016-May-15 05:33N 60°11' E 027°40'1212.3
2016-May-15 04:33N 60°10' E 028°04'1312.9
2016-May-15 03:33N 60°04' E 028°28'1312.9
2016-May-15 02:33N 60°03' E 028°53'1312.9
2016-May-15 01:32N 60°02' E 029°20'9 9.6
2016-May-15 00:33N 60°00' E 029°38'1010.0
2016-May-14 23:33N 59°56' E 029°57'8 8.0
2016-May-14 22:33N 59°53' E 030°11'0 0.1
2016-May-14 21:32N 59°53' E 030°11'0 0.0
2016-May-14 20:32N 59°53' E 030°11'0 0.0
2016-May-14 19:32N 59°53' E 030°11'0 0.0
2016-May-14 18:32N 59°53' E 030°11'0 0.0
2016-May-14 17:32N 59°53' E 030°11'0 0.0
2016-May-14 16:32N 59°53' E 030°11'0 0.0
2016-May-14 15:32N 59°53' E 030°11'0 0.0
2016-May-14 14:32N 59°53' E 030°11'0 0.0
2016-May-14 13:32N 59°53' E 030°11'0 0.0
2016-May-14 12:32N 59°53' E 030°11'0 0.0
2016-May-14 11:32N 59°53' E 030°11'0 0.0
2016-May-14 10:32N 59°53' E 030°11'0 0.0
2016-May-14 09:32N 59°53' E 030°11'0 0.0
2016-May-14 08:32N 59°53' E 030°11'0 0.0
2016-May-14 07:32N 59°53' E 030°11'0 0.0
2016-May-14 06:32N 59°53' E 030°11'0 0.0
2016-May-14 05:32N 59°53' E 030°11'0 0.0
2016-May-14 04:32N 59°53' E 030°11'0 0.0
2016-May-14 03:32N 59°53' E 030°11'0 0.0
2016-May-14 02:32N 59°53' E 030°11'0 0.0
2016-May-14 01:32N 59°53' E 030°11'0 0.0
2016-May-14 00:32N 59°53' E 030°11'0 0.0
2016-May-13 23:32N 59°53' E 030°11'0 0.0
2016-May-13 22:32N 59°53' E 030°11'0 0.0
2016-May-13 21:32N 59°53' E 030°11'0 0.0
2016-May-13 20:32N 59°53' E 030°11'0 0.0
2016-May-13 19:32N 59°53' E 030°11'0 0.0
2016-May-13 18:32N 59°53' E 030°11'0 0.0
2016-May-13 17:32N 59°53' E 030°11'0 0.0
2016-May-13 16:32N 59°53' E 030°11'0 0.0
2016-May-13 15:33N 59°53' E 030°11'6 5.6
2016-May-13 14:33N 59°55' E 030°01'8 8.2
2016-May-13 13:33N 59°59' E 029°46'1010.0
2016-May-13 12:31N 60°01' E 029°26'2 1.7
2016-May-13 11:27N 60°02' E 029°23'0 0.0
2016-May-13 10:30N 60°02' E 029°23'0 0.0
2016-May-13 09:33N 60°02' E 029°23'0 0.0
2016-May-13 08:33N 60°02' E 029°23'0 0.0
2016-May-13 07:30N 60°02' E 029°23'0 0.0
2016-May-13 06:33N 60°02' E 029°23'0 0.0
2016-May-13 05:33N 60°02' E 029°23'0 0.0
2016-May-13 04:33N 60°02' E 029°23'0 0.1
2016-May-13 03:33N 60°02' E 029°23'0 0.0
2016-May-13 02:33N 60°02' E 029°23'0 0.0
2016-May-13 01:33N 60°02' E 029°23'0 0.0
2016-May-12 23:27N 60°02' E 029°23'0 0.0
2016-May-12 22:33N 60°02' E 029°23'0 0.0
2016-May-12 21:24N 60°02' E 029°23'0 0.0
2016-May-12 20:33N 60°02' E 029°23'0 0.0
2016-May-12 19:33N 60°02' E 029°23'0 0.0
2016-May-12 18:33N 60°02' E 029°23'0 0.0
2016-May-12 17:33N 60°02' E 029°23'0 0.1
2016-May-12 16:18N 60°02' E 029°23'0 0.0
2016-May-12 15:33N 60°02' E 029°23'0 0.0
2016-May-12 14:30N 60°02' E 029°23'0 0.0
2016-May-12 13:33N 60°02' E 029°23'0 0.1
2016-May-12 12:33N 60°02' E 029°23'0 0.1
2016-May-12 11:33N 60°02' E 029°23'0 0.1
2016-May-12 10:27N 60°02' E 029°23'0 0.0
2016-May-12 06:15N 60°02' E 029°23'0 0.0
2016-May-12 05:30N 60°02' E 029°23'0 0.0
2016-May-12 04:21N 60°02' E 029°23'0 0.0
2016-May-12 03:15N 60°02' E 029°23'0 0.0
2016-May-12 02:27N 60°02' E 029°23'0 0.0
2016-May-11 22:33N 60°02' E 029°23'0 0.1
2016-May-11 20:30N 60°02' E 029°23'0 0.1
2016-May-11 19:27N 60°02' E 029°23'0 0.0
2016-May-11 13:30N 60°02' E 029°24'0 0.0
2016-May-11 12:30N 60°02' E 029°23'0 0.1
2016-May-11 11:33N 60°02' E 029°24'0 0.0
2016-May-11 10:33N 60°02' E 029°24'0 0.0
2016-May-11 04:24N 60°02' E 029°24'0 0.0
2016-May-11 03:27N 60°02' E 029°24'0 0.0
2016-May-11 02:27N 60°02' E 029°24'0 0.1
2016-May-11 01:33N 60°02' E 029°24'0 0.1
2016-May-11 00:30N 60°02' E 029°24'0 0.0
2016-May-10 23:15N 60°02' E 029°24'0 0.0
2016-May-10 22:30N 60°02' E 029°24'0 0.0
2016-May-10 21:33N 60°02' E 029°24'0 0.1
2016-May-10 20:33N 60°02' E 029°24'0 0.0
2016-May-10 19:33N 60°02' E 029°24'0 0.0
2016-May-10 18:33N 60°02' E 029°24'0 0.0
2016-May-10 17:33N 60°02' E 029°24'0 0.0
2016-May-10 16:30N 60°02' E 029°24'0 0.0
2016-May-10 15:33N 60°02' E 029°24'0 0.0
2016-May-10 14:33N 60°02' E 029°24'0 0.0
2016-May-10 13:33N 60°02' E 029°24'0 0.0
2016-May-10 12:33N 60°02' E 029°24'0 0.0
2016-May-10 11:33N 60°02' E 029°24'0 0.0
2016-May-10 10:30N 60°02' E 029°24'0 0.0
2016-May-10 09:33N 60°02' E 029°24'0 0.0
2016-May-10 08:33N 60°02' E 029°24'0 0.0
2016-May-10 07:33N 60°02' E 029°24'0 0.0
2016-May-10 06:33N 60°02' E 029°24'0 0.0
2016-May-10 05:33N 60°02' E 029°24'0 0.1
2016-May-10 04:21N 60°02' E 029°24'0 0.0
2016-May-10 03:33N 60°02' E 029°24'0 0.0
2016-May-10 02:33N 60°02' E 029°24'0 0.0
2016-May-10 01:27N 60°02' E 029°24'0 0.0
2016-May-10 00:33N 60°02' E 029°24'0 0.0
2016-May-09 23:30N 60°02' E 029°24'0 0.0
2016-May-09 22:30N 60°02' E 029°24'  

Dump ship's entire track history